Glenrock, Nebraska
Current Conditions -  °F | °C
As of 2:55 AM on Friday 24 Oct 2014 (Local Time) from KAFK Reporting Station
Haze Haze  
Wind Chill: 56°   Ceiling: Unl
Heat Index: 56°   Visibility: 4mi
Dew Point: 56°   Wind: 8mph
Humidity: 100%   Direction: 190°S
Pressure: 30.01"   Gusts: NA
Location:  40.3314°N, 95.8994°W
Report Text: KAFK 240755Z AUTO 19007KT 4SM BR CLR 14/14 A3001 RMK AO2 T01350135
Loading
Personal Weather Stations






























Interactive Weather Map
Tropical Storm Tracking
New forecast layout! Learn more

10-Day Weather Forecast

Advertisements
Track Severe Weather on mobile